sensor_id;sensor_type;location;lat;lon;timestamp;P1;durP1;ratioP1;P2;durP2;ratioP2
16199;SDS011;8207;52.494;4.654;2023-05-07T00:02:07;23.35;;;20.83;;
16199;SDS011;8207;52.494;4.654;2023-05-07T00:04:34;25.88;;;23.02;;
16199;SDS011;8207;52.494;4.654;2023-05-07T00:07:02;22.52;;;20.15;;
16199;SDS011;8207;52.494;4.654;2023-05-07T00:09:29;22.88;;;20.48;;
16199;SDS011;8207;52.494;4.654;2023-05-07T00:11:56;23.00;;;20.38;;
16199;SDS011;8207;52.494;4.654;2023-05-07T00:14:23;20.45;;;18.33;;
16199;SDS011;8207;52.494;4.654;2023-05-07T00:16:51;20.27;;;18.17;;
16199;SDS011;8207;52.494;4.654;2023-05-07T00:19:18;20.23;;;18.15;;
16199;SDS011;8207;52.494;4.654;2023-05-07T00:21:45;21.55;;;19.30;;
16199;SDS011;8207;52.494;4.654;2023-05-07T00:24:12;20.73;;;18.15;;
16199;SDS011;8207;52.494;4.654;2023-05-07T00:26:39;20.88;;;18.90;;
16199;SDS011;8207;52.494;4.654;2023-05-07T00:29:05;22.52;;;20.40;;
16199;SDS011;8207;52.494;4.654;2023-05-07T00:31:32;24.42;;;21.75;;
16199;SDS011;8207;52.494;4.654;2023-05-07T00:34:01;24.45;;;21.80;;
16199;SDS011;8207;52.494;4.654;2023-05-07T00:36:28;26.58;;;23.33;;
16199;SDS011;8207;52.494;4.654;2023-05-07T00:38:56;26.63;;;23.88;;
16199;SDS011;8207;52.494;4.654;2023-05-07T00:41:25;24.65;;;21.83;;
16199;SDS011;8207;52.494;4.654;2023-05-07T00:43:52;26.75;;;23.63;;
16199;SDS011;8207;52.494;4.654;2023-05-07T00:46:19;25.52;;;23.02;;
16199;SDS011;8207;52.494;4.654;2023-05-07T00:48:47;25.77;;;23.13;;
16199;SDS011;8207;52.494;4.654;2023-05-07T00:51:17;22.15;;;19.95;;
16199;SDS011;8207;52.494;4.654;2023-05-07T00:53:44;23.73;;;21.38;;
16199;SDS011;8207;52.494;4.654;2023-05-07T00:56:12;22.20;;;19.90;;
16199;SDS011;8207;52.494;4.654;2023-05-07T00:58:39;24.95;;;22.25;;
16199;SDS011;8207;52.494;4.654;2023-05-07T01:01:06;26.95;;;24.08;;
16199;SDS011;8207;52.494;4.654;2023-05-07T01:03:33;28.88;;;25.73;;
16199;SDS011;8207;52.494;4.654;2023-05-07T01:06:00;29.08;;;25.98;;
16199;SDS011;8207;52.494;4.654;2023-05-07T01:08:30;29.35;;;25.58;;
16199;SDS011;8207;52.494;4.654;2023-05-07T01:11:00;29.08;;;25.75;;
16199;SDS011;8207;52.494;4.654;2023-05-07T01:13:27;29.63;;;25.67;;
16199;SDS011;8207;52.494;4.654;2023-05-07T01:15:54;31.17;;;27.55;;
16199;SDS011;8207;52.494;4.654;2023-05-07T01:18:21;26.95;;;24.20;;
16199;SDS011;8207;52.494;4.654;2023-05-07T01:20:51;29.02;;;25.85;;
16199;SDS011;8207;52.494;4.654;2023-05-07T01:23:19;28.02;;;24.95;;
16199;SDS011;8207;52.494;4.654;2023-05-07T01:25:50;29.90;;;26.52;;
16199;SDS011;8207;52.494;4.654;2023-05-07T01:28:18;25.23;;;22.63;;
16199;SDS011;8207;52.494;4.654;2023-05-07T01:30:46;31.17;;;27.65;;
16199;SDS011;8207;52.494;4.654;2023-05-07T01:33:18;33.30;;;28.70;;
16199;SDS011;8207;52.494;4.654;2023-05-07T01:35:47;39.50;;;34.47;;
16199;SDS011;8207;52.494;4.654;2023-05-07T01:38:16;36.67;;;32.05;;
16199;SDS011;8207;52.494;4.654;2023-05-07T01:40:45;34.42;;;30.70;;
16199;SDS011;8207;52.494;4.654;2023-05-07T01:43:13;36.88;;;32.78;;
16199;SDS011;8207;52.494;4.654;2023-05-07T01:45:40;42.70;;;36.80;;
16199;SDS011;8207;52.494;4.654;2023-05-07T01:48:09;45.88;;;38.25;;
16199;SDS011;8207;52.494;4.654;2023-05-07T01:50:37;39.30;;;33.53;;
16199;SDS011;8207;52.494;4.654;2023-05-07T01:53:05;45.08;;;35.70;;
16199;SDS011;8207;52.494;4.654;2023-05-07T01:55:32;47.88;;;39.45;;
16199;SDS011;8207;52.494;4.654;2023-05-07T01:58:00;52.20;;;42.38;;
16199;SDS011;8207;52.494;4.654;2023-05-07T02:00:27;53.63;;;41.58;;
16199;SDS011;8207;52.494;4.654;2023-05-07T02:02:54;53.70;;;41.88;;
16199;SDS011;8207;52.494;4.654;2023-05-07T02:05:21;51.20;;;42.55;;
16199;SDS011;8207;52.494;4.654;2023-05-07T02:07:48;55.55;;;43.85;;
16199;SDS011;8207;52.494;4.654;2023-05-07T02:10:15;54.83;;;44.33;;
16199;SDS011;8207;52.494;4.654;2023-05-07T02:12:42;55.22;;;43.47;;
16199;SDS011;8207;52.494;4.654;2023-05-07T02:15:11;53.70;;;41.45;;
16199;SDS011;8207;52.494;4.654;2023-05-07T02:17:39;55.63;;;45.30;;
16199;SDS011;8207;52.494;4.654;2023-05-07T02:20:25;53.65;;;42.70;;
16199;SDS011;8207;52.494;4.654;2023-05-07T02:22:52;62.33;;;47.20;;
16199;SDS011;8207;52.494;4.654;2023-05-07T02:25:19;56.78;;;45.00;;
16199;SDS011;8207;52.494;4.654;2023-05-07T02:27:45;59.83;;;46.92;;
16199;SDS011;8207;52.494;4.654;2023-05-07T02:30:14;52.05;;;39.45;;
16199;SDS011;8207;52.494;4.654;2023-05-07T02:32:41;48.17;;;41.25;;
16199;SDS011;8207;52.494;4.654;2023-05-07T02:35:08;57.53;;;44.63;;
16199;SDS011;8207;52.494;4.654;2023-05-07T02:37:35;56.55;;;44.92;;
16199;SDS011;8207;52.494;4.654;2023-05-07T02:40:02;57.10;;;45.42;;
16199;SDS011;8207;52.494;4.654;2023-05-07T02:42:30;51.92;;;41.10;;
16199;SDS011;8207;52.494;4.654;2023-05-07T02:44:57;62.42;;;47.78;;
16199;SDS011;8207;52.494;4.654;2023-05-07T02:47:25;52.80;;;41.65;;
16199;SDS011;8207;52.494;4.654;2023-05-07T02:49:53;53.42;;;42.60;;
16199;SDS011;8207;52.494;4.654;2023-05-07T02:52:20;55.90;;;42.78;;
16199;SDS011;8207;52.494;4.654;2023-05-07T02:54:47;49.53;;;40.25;;
16199;SDS011;8207;52.494;4.654;2023-05-07T02:57:14;54.38;;;42.92;;
16199;SDS011;8207;52.494;4.654;2023-05-07T02:59:41;50.83;;;41.13;;
16199;SDS011;8207;52.494;4.654;2023-05-07T03:02:08;49.73;;;38.70;;
16199;SDS011;8207;52.494;4.654;2023-05-07T03:04:37;52.83;;;41.92;;
16199;SDS011;8207;52.494;4.654;2023-05-07T03:07:05;51.80;;;39.60;;
16199;SDS011;8207;52.494;4.654;2023-05-07T03:09:31;50.63;;;40.28;;
16199;SDS011;8207;52.494;4.654;2023-05-07T03:11:58;46.55;;;38.03;;
16199;SDS011;8207;52.494;4.654;2023-05-07T03:14:26;47.37;;;39.53;;
16199;SDS011;8207;52.494;4.654;2023-05-07T03:16:53;42.08;;;33.95;;
16199;SDS011;8207;52.494;4.654;2023-05-07T03:19:20;43.45;;;35.35;;
16199;SDS011;8207;52.494;4.654;2023-05-07T03:21:49;40.08;;;32.70;;
16199;SDS011;8207;52.494;4.654;2023-05-07T03:24:16;36.38;;;31.58;;
16199;SDS011;8207;52.494;4.654;2023-05-07T03:26:42;36.35;;;29.95;;
16199;SDS011;8207;52.494;4.654;2023-05-07T03:29:09;35.15;;;29.45;;
16199;SDS011;8207;52.494;4.654;2023-05-07T03:31:36;33.55;;;28.08;;
16199;SDS011;8207;52.494;4.654;2023-05-07T03:34:03;29.65;;;24.92;;
16199;SDS011;8207;52.494;4.654;2023-05-07T03:36:30;27.93;;;24.67;;
16199;SDS011;8207;52.494;4.654;2023-05-07T03:38:59;26.35;;;22.48;;
16199;SDS011;8207;52.494;4.654;2023-05-07T03:41:26;25.77;;;21.23;;
16199;SDS011;8207;52.494;4.654;2023-05-07T03:43:54;23.10;;;19.88;;
16199;SDS011;8207;52.494;4.654;2023-05-07T03:46:21;23.48;;;20.80;;
16199;SDS011;8207;52.494;4.654;2023-05-07T03:48:51;24.05;;;19.98;;
16199;SDS011;8207;52.494;4.654;2023-05-07T03:51:17;21.58;;;17.63;;
16199;SDS011;8207;52.494;4.654;2023-05-07T03:53:44;21.10;;;18.88;;
16199;SDS011;8207;52.494;4.654;2023-05-07T03:56:13;18.05;;;15.90;;
16199;SDS011;8207;52.494;4.654;2023-05-07T03:58:40;22.60;;;19.58;;
16199;SDS011;8207;52.494;4.654;2023-05-07T04:01:06;21.88;;;18.65;;
16199;SDS011;8207;52.494;4.654;2023-05-07T04:03:33;22.13;;;18.45;;
16199;SDS011;8207;52.494;4.654;2023-05-07T04:06:00;23.38;;;19.80;;
16199;SDS011;8207;52.494;4.654;2023-05-07T04:08:27;22.13;;;18.52;;
16199;SDS011;8207;52.494;4.654;2023-05-07T04:10:54;22.03;;;18.50;;
16199;SDS011;8207;52.494;4.654;2023-05-07T04:13:23;20.52;;;17.40;;
16199;SDS011;8207;52.494;4.654;2023-05-07T04:15:50;18.88;;;16.95;;
16199;SDS011;8207;52.494;4.654;2023-05-07T04:18:17;19.17;;;16.92;;
16199;SDS011;8207;52.494;4.654;2023-05-07T04:20:45;19.27;;;17.23;;
16199;SDS011;8207;52.494;4.654;2023-05-07T04:23:11;18.95;;;16.67;;
16199;SDS011;8207;52.494;4.654;2023-05-07T04:25:38;16.75;;;15.05;;
16199;SDS011;8207;52.494;4.654;2023-05-07T04:28:05;15.90;;;13.65;;
16199;SDS011;8207;52.494;4.654;2023-05-07T04:30:33;16.42;;;13.18;;
16199;SDS011;8207;52.494;4.654;2023-05-07T04:33:00;15.35;;;12.88;;
16199;SDS011;8207;52.494;4.654;2023-05-07T04:35:27;13.18;;;11.88;;
16199;SDS011;8207;52.494;4.654;2023-05-07T04:37:54;14.00;;;12.20;;
16199;SDS011;8207;52.494;4.654;2023-05-07T04:40:21;14.13;;;12.13;;
16199;SDS011;8207;52.494;4.654;2023-05-07T04:42:48;13.77;;;11.75;;
16199;SDS011;8207;52.494;4.654;2023-05-07T04:45:15;12.95;;;11.27;;
16199;SDS011;8207;52.494;4.654;2023-05-07T04:47:43;14.57;;;11.23;;
16199;SDS011;8207;52.494;4.654;2023-05-07T04:50:10;12.18;;;10.23;;
16199;SDS011;8207;52.494;4.654;2023-05-07T04:52:37;11.35;;;10.27;;
16199;SDS011;8207;52.494;4.654;2023-05-07T04:55:04;12.90;;;10.43;;
16199;SDS011;8207;52.494;4.654;2023-05-07T04:57:31;11.68;;;9.82;;
16199;SDS011;8207;52.494;4.654;2023-05-07T04:59:58;11.63;;;9.82;;
16199;SDS011;8207;52.494;4.654;2023-05-07T05:02:25;12.23;;;11.00;;
16199;SDS011;8207;52.494;4.654;2023-05-07T05:04:53;10.55;;;9.40;;
16199;SDS011;8207;52.494;4.654;2023-05-07T05:07:20;10.40;;;9.27;;
16199;SDS011;8207;52.494;4.654;2023-05-07T05:09:47;10.73;;;9.63;;
16199;SDS011;8207;52.494;4.654;2023-05-07T05:12:14;9.68;;;8.15;;
16199;SDS011;8207;52.494;4.654;2023-05-07T05:14:40;10.10;;;7.43;;
16199;SDS011;8207;52.494;4.654;2023-05-07T05:17:08;10.07;;;8.98;;
16199;SDS011;8207;52.494;4.654;2023-05-07T05:19:34;11.40;;;8.93;;
16199;SDS011;8207;52.494;4.654;2023-05-07T05:22:03;9.25;;;8.27;;
16199;SDS011;8207;52.494;4.654;2023-05-07T05:24:30;9.38;;;7.97;;
16199;SDS011;8207;52.494;4.654;2023-05-07T05:26:56;9.05;;;8.10;;
16199;SDS011;8207;52.494;4.654;2023-05-07T05:29:24;8.35;;;7.00;;
16199;SDS011;8207;52.494;4.654;2023-05-07T05:31:51;9.60;;;8.70;;
16199;SDS011;8207;52.494;4.654;2023-05-07T05:34:18;9.82;;;8.65;;
16199;SDS011;8207;52.494;4.654;2023-05-07T05:36:46;8.75;;;7.70;;
16199;SDS011;8207;52.494;4.654;2023-05-07T05:39:15;11.77;;;9.52;;
16199;SDS011;8207;52.494;4.654;2023-05-07T05:41:41;10.98;;;9.23;;
16199;SDS011;8207;52.494;4.654;2023-05-07T05:44:08;9.50;;;8.60;;
16199;SDS011;8207;52.494;4.654;2023-05-07T05:46:35;9.93;;;8.77;;
16199;SDS011;8207;52.494;4.654;2023-05-07T05:49:02;13.50;;;9.35;;
16199;SDS011;8207;52.494;4.654;2023-05-07T05:51:29;10.77;;;9.18;;
16199;SDS011;8207;52.494;4.654;2023-05-07T05:53:56;11.63;;;10.43;;
16199;SDS011;8207;52.494;4.654;2023-05-07T05:56:24;12.80;;;10.32;;
16199;SDS011;8207;52.494;4.654;2023-05-07T05:58:51;10.10;;;8.60;;
16199;SDS011;8207;52.494;4.654;2023-05-07T06:01:18;13.60;;;11.35;;
16199;SDS011;8207;52.494;4.654;2023-05-07T06:03:45;12.30;;;11.02;;
16199;SDS011;8207;52.494;4.654;2023-05-07T06:06:12;10.13;;;9.13;;
16199;SDS011;8207;52.494;4.654;2023-05-07T06:08:39;12.30;;;11.00;;
16199;SDS011;8207;52.494;4.654;2023-05-07T06:11:06;12.73;;;11.40;;
16199;SDS011;8207;52.494;4.654;2023-05-07T06:13:35;11.70;;;10.45;;
16199;SDS011;8207;52.494;4.654;2023-05-07T06:16:02;12.18;;;10.95;;
16199;SDS011;8207;52.494;4.654;2023-05-07T06:18:29;11.07;;;10.00;;
16199;SDS011;8207;52.494;4.654;2023-05-07T06:20:55;15.50;;;11.45;;
16199;SDS011;8207;52.494;4.654;2023-05-07T06:23:22;15.07;;;11.98;;
16199;SDS011;8207;52.494;4.654;2023-05-07T06:25:49;12.82;;;11.50;;
16199;SDS011;8207;52.494;4.654;2023-05-07T06:28:16;18.63;;;14.15;;
16199;SDS011;8207;52.494;4.654;2023-05-07T06:30:45;17.27;;;15.05;;
16199;SDS011;8207;52.494;4.654;2023-05-07T06:33:13;16.15;;;14.55;;
16199;SDS011;8207;52.494;4.654;2023-05-07T06:35:40;16.75;;;15.02;;
16199;SDS011;8207;52.494;4.654;2023-05-07T06:38:07;18.25;;;16.38;;
16199;SDS011;8207;52.494;4.654;2023-05-07T06:40:34;16.83;;;15.02;;
16199;SDS011;8207;52.494;4.654;2023-05-07T06:43:01;18.05;;;16.10;;
16199;SDS011;8207;52.494;4.654;2023-05-07T06:45:28;20.40;;;18.40;;
16199;SDS011;8207;52.494;4.654;2023-05-07T06:47:56;21.02;;;18.30;;
16199;SDS011;8207;52.494;4.654;2023-05-07T06:50:23;22.65;;;20.35;;
16199;SDS011;8207;52.494;4.654;2023-05-07T06:52:50;19.10;;;17.23;;
16199;SDS011;8207;52.494;4.654;2023-05-07T06:55:17;23.95;;;21.67;;
16199;SDS011;8207;52.494;4.654;2023-05-07T06:57:44;23.85;;;21.55;;
16199;SDS011;8207;52.494;4.654;2023-05-07T07:00:11;20.25;;;18.23;;
16199;SDS011;8207;52.494;4.654;2023-05-07T07:02:39;21.63;;;19.52;;
16199;SDS011;8207;52.494;4.654;2023-05-07T07:05:08;18.35;;;16.58;;
16199;SDS011;8207;52.494;4.654;2023-05-07T07:07:35;16.90;;;14.38;;
16199;SDS011;8207;52.494;4.654;2023-05-07T07:10:02;15.25;;;13.57;;
16199;SDS011;8207;52.494;4.654;2023-05-07T07:12:30;14.85;;;13.35;;
16199;SDS011;8207;52.494;4.654;2023-05-07T07:14:57;13.77;;;12.23;;
16199;SDS011;8207;52.494;4.654;2023-05-07T07:17:24;13.27;;;11.90;;
16199;SDS011;8207;52.494;4.654;2023-05-07T07:19:51;12.85;;;11.55;;
16199;SDS011;8207;52.494;4.654;2023-05-07T07:22:19;13.40;;;11.55;;
16199;SDS011;8207;52.494;4.654;2023-05-07T07:24:46;11.52;;;10.30;;
16199;SDS011;8207;52.494;4.654;2023-05-07T07:27:13;12.45;;;10.35;;
16199;SDS011;8207;52.494;4.654;2023-05-07T07:29:40;11.75;;;10.57;;
16199;SDS011;8207;52.494;4.654;2023-05-07T07:32:07;12.93;;;11.63;;
16199;SDS011;8207;52.494;4.654;2023-05-07T07:34:34;11.57;;;10.45;;
16199;SDS011;8207;52.494;4.654;2023-05-07T07:37:01;11.45;;;10.27;;
16199;SDS011;8207;52.494;4.654;2023-05-07T07:39:32;12.18;;;10.98;;
16199;SDS011;8207;52.494;4.654;2023-05-07T07:41:59;12.40;;;11.20;;
16199;SDS011;8207;52.494;4.654;2023-05-07T07:46:53;11.07;;;10.07;;
16199;SDS011;8207;52.494;4.654;2023-05-07T07:49:20;11.57;;;10.48;;
16199;SDS011;8207;52.494;4.654;2023-05-07T07:51:47;10.95;;;9.85;;
16199;SDS011;8207;52.494;4.654;2023-05-07T07:54:14;12.43;;;11.23;;
16199;SDS011;8207;52.494;4.654;2023-05-07T07:56:42;13.07;;;11.60;;
16199;SDS011;8207;52.494;4.654;2023-05-07T07:59:09;13.57;;;11.50;;
16199;SDS011;8207;52.494;4.654;2023-05-07T08:01:36;12.07;;;10.88;;
16199;SDS011;8207;52.494;4.654;2023-05-07T08:04:03;11.18;;;10.05;;
16199;SDS011;8207;52.494;4.654;2023-05-07T08:06:30;13.65;;;11.07;;
16199;SDS011;8207;52.494;4.654;2023-05-07T08:08:57;12.27;;;11.07;;
16199;SDS011;8207;52.494;4.654;2023-05-07T08:11:24;13.98;;;11.48;;
16199;SDS011;8207;52.494;4.654;2023-05-07T08:13:53;12.65;;;10.88;;
16199;SDS011;8207;52.494;4.654;2023-05-07T08:16:20;12.77;;;11.48;;
16199;SDS011;8207;52.494;4.654;2023-05-07T08:18:47;12.57;;;10.13;;
16199;SDS011;8207;52.494;4.654;2023-05-07T08:21:14;12.35;;;11.20;;
16199;SDS011;8207;52.494;4.654;2023-05-07T08:23:41;12.88;;;11.27;;
16199;SDS011;8207;52.494;4.654;2023-05-07T08:26:08;13.35;;;12.05;;
16199;SDS011;8207;52.494;4.654;2023-05-07T08:28:35;11.35;;;10.00;;
16199;SDS011;8207;52.494;4.654;2023-05-07T08:31:03;13.38;;;12.07;;
16199;SDS011;8207;52.494;4.654;2023-05-07T08:33:30;12.23;;;11.05;;
16199;SDS011;8207;52.494;4.654;2023-05-07T08:35:57;10.90;;;9.82;;
16199;SDS011;8207;52.494;4.654;2023-05-07T08:38:24;11.73;;;10.50;;
16199;SDS011;8207;52.494;4.654;2023-05-07T08:40:51;9.45;;;8.55;;
16199;SDS011;8207;52.494;4.654;2023-05-07T08:43:18;9.90;;;8.93;;
16199;SDS011;8207;52.494;4.654;2023-05-07T08:45:47;10.70;;;9.60;;
16199;SDS011;8207;52.494;4.654;2023-05-07T08:48:22;9.82;;;8.63;;
16199;SDS011;8207;52.494;4.654;2023-05-07T08:50:52;8.50;;;7.68;;
16199;SDS011;8207;52.494;4.654;2023-05-07T08:53:28;9.93;;;8.93;;
16199;SDS011;8207;52.494;4.654;2023-05-07T08:55:55;9.52;;;7.95;;
16199;SDS011;8207;52.494;4.654;2023-05-07T08:58:23;9.20;;;8.10;;
16199;SDS011;8207;52.494;4.654;2023-05-07T09:00:50;9.38;;;7.97;;
16199;SDS011;8207;52.494;4.654;2023-05-07T09:03:19;9.82;;;6.85;;
16199;SDS011;8207;52.494;4.654;2023-05-07T09:05:47;8.23;;;7.43;;
16199;SDS011;8207;52.494;4.654;2023-05-07T09:08:14;7.03;;;6.32;;
16199;SDS011;8207;52.494;4.654;2023-05-07T09:10:41;6.45;;;5.30;;
16199;SDS011;8207;52.494;4.654;2023-05-07T09:13:08;7.80;;;6.50;;
16199;SDS011;8207;52.494;4.654;2023-05-07T09:15:38;5.72;;;5.22;;
16199;SDS011;8207;52.494;4.654;2023-05-07T09:18:05;6.97;;;6.28;;
16199;SDS011;8207;52.494;4.654;2023-05-07T09:20:33;8.18;;;5.80;;
16199;SDS011;8207;52.494;4.654;2023-05-07T09:23:02;6.97;;;5.90;;
16199;SDS011;8207;52.494;4.654;2023-05-07T09:25:29;7.85;;;6.47;;
16199;SDS011;8207;52.494;4.654;2023-05-07T09:27:57;6.68;;;5.50;;
16199;SDS011;8207;52.494;4.654;2023-05-07T09:30:27;7.50;;;6.13;;
16199;SDS011;8207;52.494;4.654;2023-05-07T09:32:55;7.05;;;6.32;;
16199;SDS011;8207;52.494;4.654;2023-05-07T09:35:22;7.68;;;6.53;;
16199;SDS011;8207;52.494;4.654;2023-05-07T09:37:53;8.00;;;7.30;;
16199;SDS011;8207;52.494;4.654;2023-05-07T09:40:21;8.20;;;7.40;;
16199;SDS011;8207;52.494;4.654;2023-05-07T09:42:50;7.72;;;6.68;;
16199;SDS011;8207;52.494;4.654;2023-05-07T09:45:21;7.53;;;6.82;;
16199;SDS011;8207;52.494;4.654;2023-05-07T09:47:48;6.75;;;6.05;;
16199;SDS011;8207;52.494;4.654;2023-05-07T09:50:19;6.30;;;5.68;;
16199;SDS011;8207;52.494;4.654;2023-05-07T09:52:48;6.03;;;5.43;;
16199;SDS011;8207;52.494;4.654;2023-05-07T09:55:17;5.30;;;4.18;;
16199;SDS011;8207;52.494;4.654;2023-05-07T09:57:44;4.18;;;3.55;;
16199;SDS011;8207;52.494;4.654;2023-05-07T10:00:12;4.57;;;4.18;;
16199;SDS011;8207;52.494;4.654;2023-05-07T10:02:40;5.47;;;4.50;;
16199;SDS011;8207;52.494;4.654;2023-05-07T10:05:13;4.68;;;4.25;;
16199;SDS011;8207;52.494;4.654;2023-05-07T10:07:40;5.30;;;4.80;;
16199;SDS011;8207;52.494;4.654;2023-05-07T10:10:07;5.30;;;4.80;;
16199;SDS011;8207;52.494;4.654;2023-05-07T10:12:36;8.05;;;7.32;;
16199;SDS011;8207;52.494;4.654;2023-05-07T10:15:05;10.73;;;7.05;;
16199;SDS011;8207;52.494;4.654;2023-05-07T10:17:34;7.55;;;6.55;;
16199;SDS011;8207;52.494;4.654;2023-05-07T10:20:02;7.75;;;6.13;;
16199;SDS011;8207;52.494;4.654;2023-05-07T10:22:30;8.68;;;6.57;;
16199;SDS011;8207;52.494;4.654;2023-05-07T10:25:01;8.15;;;6.60;;
16199;SDS011;8207;52.494;4.654;2023-05-07T10:27:30;6.97;;;5.88;;
16199;SDS011;8207;52.494;4.654;2023-05-07T10:30:03;7.88;;;6.63;;
16199;SDS011;8207;52.494;4.654;2023-05-07T10:32:39;7.15;;;6.45;;
16199;SDS011;8207;52.494;4.654;2023-05-07T10:35:10;7.20;;;6.03;;
16199;SDS011;8207;52.494;4.654;2023-05-07T10:37:40;9.30;;;7.82;;
16199;SDS011;8207;52.494;4.654;2023-05-07T10:40:08;6.13;;;5.10;;
16199;SDS011;8207;52.494;4.654;2023-05-07T10:42:36;5.00;;;3.90;;
16199;SDS011;8207;52.494;4.654;2023-05-07T10:45:14;6.65;;;3.78;;
16199;SDS011;8207;52.494;4.654;2023-05-07T10:50:35;6.80;;;3.83;;
16199;SDS011;8207;52.494;4.654;2023-05-07T10:53:21;5.38;;;3.47;;
16199;SDS011;8207;52.494;4.654;2023-05-07T11:01:59;7.05;;;4.50;;
16199;SDS011;8207;52.494;4.654;2023-05-07T11:04:27;6.53;;;3.63;;
16199;SDS011;8207;52.494;4.654;2023-05-07T11:09:56;5.50;;;4.57;;
16199;SDS011;8207;52.494;4.654;2023-05-07T11:15:33;3.70;;;3.00;;
16199;SDS011;8207;52.494;4.654;2023-05-07T11:18:06;7.40;;;3.22;;
16199;SDS011;8207;52.494;4.654;2023-05-07T11:20:53;6.03;;;3.88;;
16199;SDS011;8207;52.494;4.654;2023-05-07T11:26:44;5.32;;;3.60;;
16199;SDS011;8207;52.494;4.654;2023-05-07T11:29:13;4.93;;;2.50;;
16199;SDS011;8207;52.494;4.654;2023-05-07T11:31:41;6.20;;;4.25;;
16199;SDS011;8207;52.494;4.654;2023-05-07T11:34:10;5.70;;;4.18;;
16199;SDS011;8207;52.494;4.654;2023-05-07T11:36:41;9.88;;;8.40;;
16199;SDS011;8207;52.494;4.654;2023-05-07T11:39:25;9.02;;;6.90;;
16199;SDS011;8207;52.494;4.654;2023-05-07T11:41:56;10.25;;;8.13;;
16199;SDS011;8207;52.494;4.654;2023-05-07T11:44:23;10.50;;;7.50;;
16199;SDS011;8207;52.494;4.654;2023-05-07T11:46:50;9.63;;;7.65;;
16199;SDS011;8207;52.494;4.654;2023-05-07T11:49:19;11.80;;;8.18;;
16199;SDS011;8207;52.494;4.654;2023-05-07T11:51:45;10.95;;;8.25;;
16199;SDS011;8207;52.494;4.654;2023-05-07T11:54:15;8.40;;;7.60;;
16199;SDS011;8207;52.494;4.654;2023-05-07T11:56:43;12.35;;;9.20;;
16199;SDS011;8207;52.494;4.654;2023-05-07T11:59:12;13.20;;;10.27;;
16199;SDS011;8207;52.494;4.654;2023-05-07T12:01:44;9.70;;;8.70;;
16199;SDS011;8207;52.494;4.654;2023-05-07T12:04:12;10.50;;;8.15;;
16199;SDS011;8207;52.494;4.654;2023-05-07T12:06:40;12.50;;;9.95;;
16199;SDS011;8207;52.494;4.654;2023-05-07T12:09:07;9.60;;;8.60;;
16199;SDS011;8207;52.494;4.654;2023-05-07T12:11:36;10.95;;;9.57;;
16199;SDS011;8207;52.494;4.654;2023-05-07T12:14:05;11.70;;;9.98;;
16199;SDS011;8207;52.494;4.654;2023-05-07T12:16:32;9.10;;;8.20;;
16199;SDS011;8207;52.494;4.654;2023-05-07T12:18:59;9.30;;;8.20;;
16199;SDS011;8207;52.494;4.654;2023-05-07T12:21:26;12.10;;;10.75;;
16199;SDS011;8207;52.494;4.654;2023-05-07T12:23:54;13.60;;;12.38;;
16199;SDS011;8207;52.494;4.654;2023-05-07T12:26:22;14.25;;;12.63;;
16199;SDS011;8207;52.494;4.654;2023-05-07T12:28:50;11.55;;;10.43;;
16199;SDS011;8207;52.494;4.654;2023-05-07T12:31:17;13.52;;;12.32;;
16199;SDS011;8207;52.494;4.654;2023-05-07T12:33:44;15.05;;;13.50;;
16199;SDS011;8207;52.494;4.654;2023-05-07T12:36:12;17.10;;;15.50;;
16199;SDS011;8207;52.494;4.654;2023-05-07T12:38:39;17.63;;;15.90;;
16199;SDS011;8207;52.494;4.654;2023-05-07T12:41:09;21.75;;;19.75;;
16199;SDS011;8207;52.494;4.654;2023-05-07T12:43:37;22.77;;;20.48;;
16199;SDS011;8207;52.494;4.654;2023-05-07T12:46:05;20.17;;;18.25;;
16199;SDS011;8207;52.494;4.654;2023-05-07T12:48:33;23.30;;;21.00;;
16199;SDS011;8207;52.494;4.654;2023-05-07T12:51:02;18.40;;;16.67;;
16199;SDS011;8207;52.494;4.654;2023-05-07T12:53:31;19.33;;;17.52;;
16199;SDS011;8207;52.494;4.654;2023-05-07T12:55:58;18.60;;;16.83;;
16199;SDS011;8207;52.494;4.654;2023-05-07T12:58:28;20.77;;;18.67;;
16199;SDS011;8207;52.494;4.654;2023-05-07T13:00:59;21.65;;;19.55;;
16199;SDS011;8207;52.494;4.654;2023-05-07T13:03:28;21.10;;;18.83;;
16199;SDS011;8207;52.494;4.654;2023-05-07T13:05:57;20.25;;;18.27;;
16199;SDS011;8207;52.494;4.654;2023-05-07T13:08:26;23.52;;;20.85;;
16199;SDS011;8207;52.494;4.654;2023-05-07T13:10:54;19.92;;;17.85;;
16199;SDS011;8207;52.494;4.654;2023-05-07T13:13:21;21.88;;;19.73;;
16199;SDS011;8207;52.494;4.654;2023-05-07T13:15:49;23.83;;;21.52;;
16199;SDS011;8207;52.494;4.654;2023-05-07T13:18:16;23.17;;;20.95;;
16199;SDS011;8207;52.494;4.654;2023-05-07T13:20:43;24.30;;;22.05;;
16199;SDS011;8207;52.494;4.654;2023-05-07T13:23:10;24.45;;;22.15;;
16199;SDS011;8207;52.494;4.654;2023-05-07T13:25:37;25.60;;;23.00;;
16199;SDS011;8207;52.494;4.654;2023-05-07T13:28:04;24.65;;;22.17;;
16199;SDS011;8207;52.494;4.654;2023-05-07T13:30:31;27.75;;;24.83;;
16199;SDS011;8207;52.494;4.654;2023-05-07T13:32:59;26.77;;;24.05;;
16199;SDS011;8207;52.494;4.654;2023-05-07T13:35:26;23.83;;;21.63;;
16199;SDS011;8207;52.494;4.654;2023-05-07T13:37:53;23.50;;;21.25;;
16199;SDS011;8207;52.494;4.654;2023-05-07T13:40:20;22.98;;;20.83;;
16199;SDS011;8207;52.494;4.654;2023-05-07T13:42:47;22.90;;;20.33;;
16199;SDS011;8207;52.494;4.654;2023-05-07T13:45:15;22.08;;;19.77;;
16199;SDS011;8207;52.494;4.654;2023-05-07T13:47:42;18.75;;;16.95;;
16199;SDS011;8207;52.494;4.654;2023-05-07T13:50:11;15.82;;;14.43;;
16199;SDS011;8207;52.494;4.654;2023-05-07T13:52:40;19.67;;;17.73;;
16199;SDS011;8207;52.494;4.654;2023-05-07T13:55:10;19.10;;;17.10;;
16199;SDS011;8207;52.494;4.654;2023-05-07T13:57:37;19.17;;;17.15;;
16199;SDS011;8207;52.494;4.654;2023-05-07T14:00:05;20.02;;;18.23;;
16199;SDS011;8207;52.494;4.654;2023-05-07T14:02:33;20.98;;;18.88;;
16199;SDS011;8207;52.494;4.654;2023-05-07T14:05:00;19.38;;;17.30;;
16199;SDS011;8207;52.494;4.654;2023-05-07T14:07:28;20.70;;;18.67;;
16199;SDS011;8207;52.494;4.654;2023-05-07T14:09:56;17.35;;;15.60;;
16199;SDS011;8207;52.494;4.654;2023-05-07T14:12:23;19.63;;;17.75;;
16199;SDS011;8207;52.494;4.654;2023-05-07T14:14:50;22.60;;;20.13;;
16199;SDS011;8207;52.494;4.654;2023-05-07T14:17:17;23.27;;;20.98;;
16199;SDS011;8207;52.494;4.654;2023-05-07T14:19:45;23.67;;;21.38;;
16199;SDS011;8207;52.494;4.654;2023-05-07T14:22:12;26.25;;;23.55;;
16199;SDS011;8207;52.494;4.654;2023-05-07T14:24:41;24.90;;;22.40;;
16199;SDS011;8207;52.494;4.654;2023-05-07T14:27:08;25.08;;;22.52;;
16199;SDS011;8207;52.494;4.654;2023-05-07T14:29:35;23.50;;;21.25;;
16199;SDS011;8207;52.494;4.654;2023-05-07T14:32:02;23.08;;;20.80;;
16199;SDS011;8207;52.494;4.654;2023-05-07T14:34:29;24.83;;;22.33;;
16199;SDS011;8207;52.494;4.654;2023-05-07T14:36:56;23.85;;;21.50;;
16199;SDS011;8207;52.494;4.654;2023-05-07T14:39:23;22.95;;;20.65;;
16199;SDS011;8207;52.494;4.654;2023-05-07T14:41:51;23.13;;;20.90;;
16199;SDS011;8207;52.494;4.654;2023-05-07T14:44:19;19.27;;;17.42;;
16199;SDS011;8207;52.494;4.654;2023-05-07T14:46:46;18.85;;;16.95;;
16199;SDS011;8207;52.494;4.654;2023-05-07T14:49:13;21.75;;;19.48;;
16199;SDS011;8207;52.494;4.654;2023-05-07T14:51:42;24.10;;;21.42;;
16199;SDS011;8207;52.494;4.654;2023-05-07T14:54:10;23.77;;;21.40;;
16199;SDS011;8207;52.494;4.654;2023-05-07T14:56:37;24.77;;;22.10;;
16199;SDS011;8207;52.494;4.654;2023-05-07T14:59:05;23.25;;;20.85;;
16199;SDS011;8207;52.494;4.654;2023-05-07T15:01:34;19.10;;;17.20;;
16199;SDS011;8207;52.494;4.654;2023-05-07T15:04:02;25.65;;;22.92;;
16199;SDS011;8207;52.494;4.654;2023-05-07T15:06:29;24.10;;;21.80;;